createdAt,value
2023-02-19T00:02:35.000Z,26.83
2023-02-19T00:07:34.000Z,28.41
2023-02-19T00:12:34.000Z,27.84
2023-02-19T00:17:35.000Z,28.95
2023-02-19T00:22:34.000Z,27.29
2023-02-19T00:27:35.000Z,28.04
2023-02-19T00:32:34.000Z,28.02
2023-02-19T00:37:35.000Z,27.23
2023-02-19T00:42:34.000Z,26.51
2023-02-19T00:47:35.000Z,26.15
2023-02-19T00:52:35.000Z,26.15
2023-02-19T00:57:35.000Z,26.15
2023-02-19T01:02:34.000Z,25.77
2023-02-19T01:07:35.000Z,24.75
2023-02-19T01:12:35.000Z,24.17
2023-02-19T01:17:35.000Z,23.32
2023-02-19T01:27:35.000Z,22.16
2023-02-19T01:32:34.000Z,22.37
2023-02-19T01:37:34.000Z,21.27
2023-02-19T01:42:35.000Z,20.9
2023-02-19T01:47:35.000Z,20.55
2023-02-19T01:52:35.000Z,20.53
2023-02-19T01:57:34.000Z,18.74
2023-02-19T02:02:35.000Z,18.68
2023-02-19T02:07:35.000Z,19.04
2023-02-19T02:12:35.000Z,18.34
2023-02-19T02:17:34.000Z,18.34
2023-02-19T02:22:35.000Z,18.29
2023-02-19T02:27:34.000Z,18.24
2023-02-19T02:32:35.000Z,16.82
2023-02-19T02:37:34.000Z,18.44
2023-02-19T02:42:35.000Z,16.7
2023-02-19T02:47:35.000Z,17.77
2023-02-19T02:52:35.000Z,17.41
2023-02-19T02:57:35.000Z,19.05
2023-02-19T03:02:34.000Z,18.63
2023-02-19T03:07:35.000Z,21.16
2023-02-19T03:12:35.000Z,19.67
2023-02-19T03:17:35.000Z,19.39
2023-02-19T03:22:35.000Z,19.81
2023-02-19T03:27:35.000Z,20.43
2023-02-19T03:32:34.000Z,20.43
2023-02-19T03:37:35.000Z,18.87
2023-02-19T03:42:35.000Z,20.21
2023-02-19T03:47:34.000Z,21.49
2023-02-19T03:52:35.000Z,21.93
2023-02-19T03:57:34.000Z,21.55
2023-02-19T04:02:35.000Z,22.11
2023-02-19T04:07:34.000Z,21.32
2023-02-19T04:12:35.000Z,22.24
2023-02-19T04:17:34.000Z,22.9
2023-02-19T04:22:35.000Z,22.81
2023-02-19T04:27:34.000Z,23.41
2023-02-19T04:32:35.000Z,20.31
2023-02-19T04:37:34.000Z,20.98
2023-02-19T04:42:35.000Z,20.81
2023-02-19T04:47:35.000Z,19.21
2023-02-19T04:52:34.000Z,19.21
2023-02-19T04:57:35.000Z,20.52
2023-02-19T05:07:35.000Z,20.04
2023-02-19T05:17:34.000Z,18.41
2023-02-19T05:22:35.000Z,19.15
2023-02-19T05:27:35.000Z,20.42
2023-02-19T05:32:35.000Z,18.84
2023-02-19T05:37:34.000Z,17.22
2023-02-19T05:42:35.000Z,18.45
2023-02-19T05:47:35.000Z,18.78
2023-02-19T05:52:35.000Z,15.76
2023-02-19T05:57:36.000Z,18.7
2023-02-19T06:02:34.000Z,17.17
2023-02-19T06:07:35.000Z,17.17
2023-02-19T06:12:34.000Z,16.79
2023-02-19T06:17:35.000Z,16.96
2023-02-19T06:22:34.000Z,16.94
2023-02-19T06:27:35.000Z,16.7
2023-02-19T06:32:35.000Z,16.5
2023-02-19T06:37:35.000Z,16.55
2023-02-19T06:42:35.000Z,16.72
2023-02-19T06:47:35.000Z,15.6
2023-02-19T06:52:35.000Z,16.85
2023-02-19T06:57:35.000Z,15.52
2023-02-19T07:02:35.000Z,17.73
2023-02-19T07:07:35.000Z,16.08
2023-02-19T07:12:34.000Z,16.62
2023-02-19T07:17:35.000Z,16.84
2023-02-19T07:22:34.000Z,16.84
2023-02-19T07:27:35.000Z,17.56
2023-02-19T07:32:34.000Z,17.47
2023-02-19T07:37:35.000Z,16.45
2023-02-19T07:42:34.000Z,15.48
2023-02-19T07:47:35.000Z,17.38
2023-02-19T07:52:35.000Z,16.81
2023-02-19T08:02:35.000Z,16.36
2023-02-19T08:07:34.000Z,16.12
2023-02-19T08:12:35.000Z,16.05
2023-02-19T08:17:34.000Z,16.01
2023-02-19T08:22:35.000Z,14.78
2023-02-19T08:27:34.000Z,15.39
2023-02-19T08:32:35.000Z,15.39
2023-02-19T08:37:34.000Z,16.78
2023-02-19T08:42:35.000Z,15.92
2023-02-19T08:47:34.000Z,17.93
2023-02-19T08:52:35.000Z,17.13
2023-02-19T08:57:34.000Z,19.08
2023-02-19T09:02:35.000Z,17.91
2023-02-19T09:07:34.000Z,18.29
2023-02-19T09:12:35.000Z,18.74
2023-02-19T09:17:35.000Z,19.06
2023-02-19T09:22:35.000Z,19.54
2023-02-19T09:27:34.000Z,18.5
2023-02-19T09:32:35.000Z,18
2023-02-19T09:37:35.000Z,19.38
2023-02-19T09:42:35.000Z,19.38
2023-02-19T09:47:34.000Z,18.7
2023-02-19T09:52:35.000Z,19.83
2023-02-19T09:57:35.000Z,20.13
2023-02-19T10:02:34.000Z,20.79
2023-02-19T10:07:35.000Z,20.62
2023-02-19T10:12:35.000Z,19.71
2023-02-19T10:17:35.000Z,20.15
2023-02-19T10:22:34.000Z,19.85
2023-02-19T10:27:34.000Z,21.02
2023-02-19T10:32:35.000Z,22.41
2023-02-19T10:42:34.000Z,23.87
2023-02-19T10:47:34.000Z,22.01
2023-02-19T10:52:35.000Z,21.33
2023-02-19T10:57:34.000Z,23.78
2023-02-19T11:02:35.000Z,23.49
2023-02-19T11:07:35.000Z,23.01
2023-02-19T11:12:35.000Z,24.55
2023-02-19T11:22:35.000Z,25.96
2023-02-19T11:27:35.000Z,25.96
2023-02-19T11:32:35.000Z,24.64
2023-02-19T11:37:34.000Z,24.93
2023-02-19T11:42:34.000Z,23.57
2023-02-19T11:47:34.000Z,21.98
2023-02-19T11:52:35.000Z,21.59
2023-02-19T11:57:34.000Z,21.69
2023-02-19T12:02:35.000Z,21.6
2023-02-19T12:07:35.000Z,21.41
2023-02-19T12:12:35.000Z,21.52
2023-02-19T12:17:35.000Z,20.15
2023-02-19T12:22:35.000Z,20.82
2023-02-19T12:27:35.000Z,21.38
2023-02-19T12:32:35.000Z,21.26
2023-02-19T12:37:35.000Z,20.09
2023-02-19T12:42:35.000Z,20.09
2023-02-19T12:47:35.000Z,22.21
2023-02-19T12:52:35.000Z,20.84
2023-02-19T12:57:34.000Z,22.44
2023-02-19T13:07:35.000Z,22.41
2023-02-19T13:12:34.000Z,21.53
2023-02-19T13:17:34.000Z,21.69
2023-02-19T13:22:34.000Z,21.45
2023-02-19T13:27:35.000Z,22.12
2023-02-19T13:32:35.000Z,23.46
2023-02-19T13:37:35.000Z,22.49
2023-02-19T13:42:35.000Z,22.49
2023-02-19T13:47:35.000Z,22.71
2023-02-19T13:52:34.000Z,24.35
2023-02-19T13:57:35.000Z,25.33
2023-02-19T14:02:34.000Z,24.22
2023-02-19T14:12:35.000Z,25.67
2023-02-19T14:17:35.000Z,29.18
2023-02-19T14:22:35.000Z,29.28
2023-02-19T14:27:35.000Z,31.47
2023-02-19T14:32:35.000Z,29.48
2023-02-19T14:42:35.000Z,31.7
2023-02-19T14:52:34.000Z,31.15
2023-02-19T14:57:35.000Z,31.26
2023-02-19T15:02:35.000Z,29.09
2023-02-19T15:07:35.000Z,30.21
2023-02-19T15:12:34.000Z,28.8
2023-02-19T15:22:34.000Z,29.18
2023-02-19T15:27:35.000Z,28.98
2023-02-19T15:32:35.000Z,29.37
2023-02-19T15:37:35.000Z,30.45
2023-02-19T15:42:34.000Z,30.69
2023-02-19T15:47:35.000Z,32.66
2023-02-19T15:52:35.000Z,33.54
2023-02-19T15:57:35.000Z,33.99
2023-02-19T16:02:37.000Z,34.89
2023-02-19T16:07:35.000Z,36.43
2023-02-19T16:12:34.000Z,36.09
2023-02-19T16:17:35.000Z,33.56
2023-02-19T16:22:34.000Z,31.61
2023-02-19T16:27:35.000Z,31.61
2023-02-19T16:32:35.000Z,30.21
2023-02-19T16:37:35.000Z,29.65
2023-02-19T16:42:34.000Z,29.19
2023-02-19T16:47:35.000Z,28.14
2023-02-19T16:52:35.000Z,28
2023-02-19T16:57:35.000Z,28.08
2023-02-19T17:02:35.000Z,27.38
2023-02-19T17:07:34.000Z,27.48
2023-02-19T17:12:35.000Z,27.43
2023-02-19T17:17:34.000Z,26.84
2023-02-19T17:22:35.000Z,27.51
2023-02-19T17:27:34.000Z,29
2023-02-19T17:32:35.000Z,28.76
2023-02-19T17:37:35.000Z,31.09
2023-02-19T17:42:34.000Z,29.04
2023-02-19T17:52:35.000Z,29.61
2023-02-19T17:57:35.000Z,29.68
2023-02-19T18:02:34.000Z,30.55
2023-02-19T18:07:35.000Z,30.87
2023-02-19T18:12:34.000Z,31.82
2023-02-19T18:17:35.000Z,30.04
2023-02-19T18:22:34.000Z,30.04
2023-02-19T18:27:35.000Z,32.52
2023-02-19T18:32:34.000Z,32.21
2023-02-19T18:37:35.000Z,31.91
2023-02-19T18:42:34.000Z,31.37
2023-02-19T18:47:35.000Z,32.5
2023-02-19T18:52:35.000Z,32.69
2023-02-19T19:02:35.000Z,31.71
2023-02-19T19:07:34.000Z,33.19
2023-02-19T19:12:35.000Z,33.07
2023-02-19T19:17:34.000Z,34.34
2023-02-19T19:22:35.000Z,33.92
2023-02-19T19:27:35.000Z,35.77
2023-02-19T19:32:35.000Z,35.62
2023-02-19T19:37:38.000Z,35.94
2023-02-19T19:42:34.000Z,35.52
2023-02-19T19:47:35.000Z,35.06
2023-02-19T19:52:34.000Z,35.06
2023-02-19T20:02:35.000Z,34.41
2023-02-19T20:07:35.000Z,35.34
2023-02-19T20:17:35.000Z,33.99
2023-02-19T20:22:34.000Z,34.47
2023-02-19T20:27:35.000Z,34.41
2023-02-19T20:32:34.000Z,34.76
2023-02-19T20:37:35.000Z,32.26
2023-02-19T20:42:34.000Z,33.63
2023-02-19T20:47:35.000Z,32.2
2023-02-19T20:52:34.000Z,32.41
2023-02-19T20:57:35.000Z,32.22
2023-02-19T21:02:35.000Z,32.55
2023-02-19T21:07:35.000Z,30.09
2023-02-19T21:12:35.000Z,31.1
2023-02-19T21:17:35.000Z,32.11
2023-02-19T21:22:35.000Z,31.28
2023-02-19T21:27:35.000Z,31.28
2023-02-19T21:32:35.000Z,34
2023-02-19T21:37:34.000Z,32.49
2023-02-19T21:42:35.000Z,34.04
2023-02-19T21:47:34.000Z,34.48
2023-02-19T21:52:35.000Z,35.8
2023-02-19T21:57:34.000Z,38.56
2023-02-19T22:02:35.000Z,42.46
2023-02-19T22:07:35.000Z,43.39
2023-02-19T22:12:35.000Z,43.85
2023-02-19T22:17:35.000Z,42.21
2023-02-19T22:22:34.000Z,40.28
2023-02-19T22:27:35.000Z,38.48
2023-02-19T22:32:34.000Z,37.08
2023-02-19T22:37:35.000Z,37.19
2023-02-19T22:42:34.000Z,37.19
2023-02-19T22:47:35.000Z,34.3
2023-02-19T22:52:34.000Z,33.51
2023-02-19T23:02:35.000Z,34.26
2023-02-19T23:07:34.000Z,34.53
2023-02-19T23:12:35.000Z,33.82
2023-02-19T23:17:35.000Z,33.45
2023-02-19T23:22:35.000Z,31.64
2023-02-19T23:32:34.000Z,32.47
2023-02-19T23:37:35.000Z,32.69
2023-02-19T23:42:34.000Z,31.92
2023-02-19T23:47:35.000Z,30.82
2023-02-19T23:52:34.000Z,31.64
2023-02-19T23:57:35.000Z,31.04
